Time;durP1;ratioP1;P1;durP2;ratioP2;P2;SDS_P1;SDS_P2;PMS_P1;PMS_P2;Temp;Humidity;BMP_temperature;BMP_pressure;BME280_temperature;BME280_humidity;BME280_pressure;Samples;Min_cycle;Max_cycle;Signal;HPM_P1;HPM_P2
2023/07/21 00:00:31;;;;;;;1.35;1.25;;;;;;;17.12;55.79;100025.94;10155576;29;20496;-76
2023/07/21 00:05:33;;;;;;;1.30;1.20;;;;;;;17.03;55.68;100031.41;10149470;29;20036;-76
2023/07/21 00:10:38;;;;;;;2.17;1.27;;;;;;;17.19;56.54;100035.09;10152274;29;20044;-75
2023/07/21 00:15:41;;;;;;;2.20;1.08;;;;;;;17.01;58.83;100038.03;10147592;29;20036;-76
2023/07/21 00:20:44;;;;;;;3.03;1.13;;;;;;;17.09;58.93;100037.16;10149378;29;20045;-75
2023/07/21 00:25:49;;;;;;;1.52;1.15;;;;;;;17.17;58.40;100040.72;10144261;29;20055;-75
2023/07/21 00:30:52;;;;;;;2.75;1.33;;;;;;;17.15;57.73;100036.47;10151050;29;20048;-75
2023/07/21 00:35:56;;;;;;;2.35;1.20;;;;;;;16.96;57.27;100027.69;10152041;29;20055;-75
2023/07/21 00:41:01;;;;;;;1.70;1.40;;;;;;;16.97;57.11;100018.53;10151859;29;20045;-75
2023/07/21 00:46:04;;;;;;;1.80;1.17;;;;;;;17.01;57.56;100019.03;10154992;29;20048;-75
2023/07/21 00:51:07;;;;;;;1.67;1.20;;;;;;;16.97;57.97;100013.09;10146872;29;20424;-76
2023/07/21 00:56:11;;;;;;;1.23;0.95;;;;;;;16.91;61.15;100002.94;10155398;29;20239;-75
2023/07/21 01:01:14;;;;;;;1.10;1.10;;;;;;;16.67;63.11;100000.31;10157523;29;20127;-75
2023/07/21 01:06:18;;;;;;;1.38;1.27;;;;;;;16.55;64.83;100008.81;10158794;29;20136;-75
2023/07/21 01:11:22;;;;;;;1.88;1.10;;;;;;;16.45;67.31;100012.72;10160807;29;20040;-74
2023/07/21 01:16:26;;;;;;;2.85;1.75;;;;;;;16.34;69.06;99997.66;10155346;29;20527;-75
2023/07/21 01:21:36;;;;;;;2.88;1.83;;;;;;;16.33;70.04;100001.41;10159847;29;20502;-75
2023/07/21 01:26:44;;;;;;;1.60;1.50;;;;;;;16.25;70.35;99993.25;10152964;29;20036;-75
2023/07/21 01:31:49;;;;;;;2.38;1.55;;;;;;;15.80;70.54;99990.03;10158651;29;20055;-76
2023/07/21 01:36:53;;;;;;;4.68;1.95;;;;;;;15.84;71.94;99985.97;10154566;29;20055;-74
2023/07/21 01:41:59;;;;;;;1.85;1.48;;;;;;;15.80;70.08;99981.91;10159209;29;20044;-75
2023/07/21 01:47:04;;;;;;;2.05;1.33;;;;;;;15.75;71.31;99978.00;10159021;29;20056;-75
2023/07/21 01:52:08;;;;;;;3.22;1.80;;;;;;;15.80;71.36;99968.38;10147336;29;20100;-75
2023/07/21 01:57:18;;;;;;;2.58;1.77;;;;;;;15.96;71.31;99963.94;10154411;29;20040;-75
2023/07/21 02:02:21;;;;;;;2.47;2.10;;;;;;;16.08;69.95;99959.91;10154550;29;20049;-74
2023/07/21 02:07:24;;;;;;;2.65;2.22;;;;;;;16.10;68.82;99957.88;10157827;29;20036;-74
2023/07/21 02:12:28;;;;;;;4.30;2.22;;;;;;;16.07;67.25;99952.78;10153389;29;20048;-75
2023/07/21 02:17:39;;;;;;;2.72;2.08;;;;;;;16.07;65.68;99950.06;10153166;29;20044;-75
2023/07/21 02:22:43;;;;;;;3.88;2.50;;;;;;;15.96;64.61;99942.28;10156567;29;20044;-75
2023/07/21 02:27:48;;;;;;;3.58;2.30;;;;;;;15.95;64.64;99946.84;10151467;29;20504;-74
2023/07/21 02:32:51;;;;;;;3.33;2.45;;;;;;;15.88;63.95;99941.28;10155445;29;20065;-74
2023/07/21 02:37:54;;;;;;;2.28;1.73;;;;;;;15.76;63.68;99939.91;10159535;29;20108;-74
2023/07/21 02:42:58;;;;;;;3.72;2.10;;;;;;;15.63;64.52;99945.84;10151899;29;20107;-74
2023/07/21 02:48:02;;;;;;;2.40;2.20;;;;;;;15.44;64.80;99930.78;10154441;29;20083;-75
2023/07/21 02:53:06;;;;;;;3.67;2.42;;;;;;;15.38;64.53;99930.56;10146820;29;20028;-75
2023/07/21 02:58:13;;;;;;;4.93;2.88;;;;;;;15.25;64.67;99923.78;10151303;29;20500;-75
2023/07/21 03:03:16;;;;;;;4.18;3.03;;;;;;;15.14;65.46;99925.91;10149646;29;20397;-75
2023/07/21 03:08:26;;;;;;;3.45;3.13;;;;;;;15.20;65.37;99920.72;10153569;29;20107;-74
2023/07/21 03:13:33;;;;;;;3.70;3.40;;;;;;;15.16;65.25;99910.38;10149439;29;20516;-75
2023/07/21 03:18:36;;;;;;;7.75;3.40;;;;;;;15.18;65.13;99919.19;10146809;29;20043;-75
2023/07/21 03:23:51;;;;;;;4.63;3.50;;;;;;;15.15;65.48;99906.84;10151400;29;20521;-76
2023/07/21 03:29:00;;;;;;;4.00;3.60;;;;;;;15.11;65.45;99908.19;10144809;29;20051;-75
2023/07/21 03:34:05;;;;;;;5.60;4.70;;;;;;;15.03;65.81;99908.16;10153519;29;20044;-74
2023/07/21 03:39:09;;;;;;;7.95;4.45;;;;;;;15.03;66.04;99908.16;10140590;29;20064;-74
2023/07/21 03:44:13;;;;;;;5.63;4.53;;;;;;;15.12;66.05;99912.56;10150695;29;20158;-74
2023/07/21 03:49:18;;;;;;;5.65;5.13;;;;;;;15.13;65.69;99906.13;10150857;29;20488;-75
2023/07/21 03:54:27;;;;;;;7.07;5.57;;;;;;;15.06;66.37;99902.44;10147459;29;20593;-74
2023/07/21 03:59:32;;;;;;;8.82;4.65;;;;;;;15.07;66.54;99904.09;10156742;29;20044;-74
2023/07/21 04:04:34;;;;;;;5.80;5.10;;;;;;;15.05;66.73;99903.41;10147937;29;20033;-75
2023/07/21 04:09:38;;;;;;;6.70;5.00;;;;;;;15.09;66.37;99898.53;10152493;29;20102;-76
2023/07/21 04:14:42;;;;;;;6.60;5.20;;;;;;;15.27;66.23;99904.66;10147434;29;20049;-74
2023/07/21 04:19:46;;;;;;;8.15;5.00;;;;;;;15.23;66.47;99909.56;10151271;29;20055;-75
2023/07/21 04:24:49;;;;;;;7.63;5.10;;;;;;;15.26;67.36;99901.09;10146613;29;20058;-76
2023/07/21 04:29:54;;;;;;;7.28;5.25;;;;;;;15.37;67.29;99897.25;10176894;29;20056;-74
2023/07/21 04:34:57;;;;;;;7.18;5.75;;;;;;;15.58;66.79;99909.47;10159120;29;20435;-74
2023/07/21 04:40:01;;;;;;;5.97;5.07;;;;;;;15.66;66.45;99896.78;10156775;29;20555;-75
2023/07/21 04:45:11;;;;;;;6.15;5.28;;;;;;;15.68;66.03;99900.16;10163797;29;20108;-75
2023/07/21 04:50:20;;;;;;;4.88;4.45;;;;;;;15.75;66.50;99902.19;10155674;29;20624;-76
2023/07/21 04:55:23;;;;;;;5.50;5.00;;;;;;;15.81;66.84;99899.63;10155306;29;20043;-75
2023/07/21 05:00:29;;;;;;;5.63;5.07;;;;;;;15.96;66.76;99890.81;10161550;29;20048;-74
2023/07/21 05:05:34;;;;;;;5.45;4.95;;;;;;;16.05;66.71;99887.09;10152675;29;20691;-75
2023/07/21 05:10:37;;;;;;;8.45;5.93;;;;;;;16.06;66.73;99889.63;10153239;29;20099;-75
2023/07/21 05:15:44;;;;;;;6.95;5.43;;;;;;;16.08;66.52;99890.31;10148671;29;20048;-75
2023/07/21 05:21:05;;;;;;;6.77;6.17;;;;;;;16.20;66.52;99887.22;10158665;29;20050;-75
2023/07/21 05:26:16;;;;;;;6.07;5.47;;;;;;;16.34;66.65;99884.66;10148115;29;20041;-74
2023/07/21 05:31:20;;;;;;;6.40;5.35;;;;;;;16.48;66.26;99879.53;10155633;29;20104;-76
2023/07/21 05:36:33;;;;;;;6.20;5.70;;;;;;;16.62;65.42;99889.69;10152202;29;20526;-75
2023/07/21 05:41:36;;;;;;;6.93;5.72;;;;;;;16.66;64.98;99887.44;10151160;29;20066;-75
2023/07/21 05:46:41;;;;;;;6.75;6.25;;;;;;;16.82;64.92;99906.38;10154649;29;20501;-74
2023/07/21 05:51:45;;;;;;;6.63;5.75;;;;;;;17.00;64.42;99906.09;10152954;29;20052;-75
2023/07/21 05:57:18;;;;;;;8.50;6.95;;;;;;;17.07;64.13;99904.38;10144162;29;20135;-75
2023/07/21 06:02:25;;;;;;;8.57;6.97;;;;;;;17.25;63.61;99906.81;10147817;29;20041;-75
2023/07/21 06:07:33;;;;;;;6.13;5.57;;;;;;;17.48;63.02;99913.13;10156132;29;20058;-75
2023/07/21 06:13:08;;;;;;;6.35;5.72;;;;;;;17.66;61.81;99910.09;10137507;29;20532;-75
2023/07/21 06:18:36;;;;;;;4.95;2.05;;;;;;;17.62;61.00;99910.66;10122947;29;20135;-75
2023/07/21 06:23:39;;;;;;;3.20;2.90;;;;;;;17.86;61.53;99907.72;10146278;29;20085;-74
2023/07/21 06:28:42;;;;;;;3.70;3.30;;;;;;;17.75;60.76;99899.19;10147407;29;20052;-74
2023/07/21 06:33:49;;;;;;;4.32;3.92;;;;;;;17.57;60.42;99903.03;10151813;29;20155;-75
2023/07/21 06:39:04;;;;;;;5.28;4.10;;;;;;;17.74;61.78;99903.75;10150146;29;20082;-75
2023/07/21 06:44:23;;;;;;;5.55;5.10;;;;;;;17.63;60.03;99905.00;10151890;29;20058;-75
2023/07/21 06:49:50;;;;;;;5.22;4.65;;;;;;;17.59;59.61;99897.44;10127968;29;20071;-75
2023/07/21 06:54:59;;;;;;;7.13;4.88;;;;;;;17.49;60.26;99900.38;10157242;29;20419;-75
2023/07/21 07:00:03;;;;;;;4.97;4.55;;;;;;;17.99;59.00;99887.25;10144161;29;20064;-74
2023/07/21 07:05:09;;;;;;;5.45;4.90;;;;;;;18.66;58.55;99883.63;10157227;29;20107;-74
2023/07/21 07:10:12;;;;;;;6.13;4.78;;;;;;;18.79;56.43;99887.41;10155981;29;20056;-76
2023/07/21 07:15:15;;;;;;;7.90;3.63;;;;;;;18.94;56.56;99876.47;10151929;29;20044;-75
2023/07/21 07:20:19;;;;;;;3.90;3.55;;;;;;;19.29;55.62;99876.66;10153303;29;20048;-75
2023/07/21 07:25:24;;;;;;;4.55;3.58;;;;;;;19.48;55.20;99868.88;10148146;29;20067;-74
2023/07/21 07:30:27;;;;;;;3.53;3.10;;;;;;;20.10;52.66;99866.28;10147159;29;20556;-75
2023/07/21 07:35:34;;;;;;;3.78;3.15;;;;;;;19.97;52.31;99868.06;10150783;29;20079;-74
2023/07/21 07:40:36;;;;;;;5.57;3.55;;;;;;;19.64;52.76;99863.19;10150498;29;20049;-75
2023/07/21 07:45:39;;;;;;;3.65;3.13;;;;;;;19.93;51.92;99867.59;10158055;29;20039;-75
2023/07/21 07:50:44;;;;;;;5.30;3.88;;;;;;;20.98;50.09;99869.28;10156453;29;20064;-75
2023/07/21 07:55:47;;;;;;;4.28;3.35;;;;;;;21.95;47.99;99875.34;10150917;29;20043;-75
2023/07/21 08:00:50;;;;;;;4.30;3.55;;;;;;;21.80;48.63;99875.56;10155244;29;20044;-75
2023/07/21 08:05:54;;;;;;;4.78;3.50;;;;;;;22.41;46.71;99873.59;10162558;29;20071;-75
2023/07/21 08:10:57;;;;;;;4.82;3.80;;;;;;;21.68;46.99;99871.72;10157112;29;20067;-74
2023/07/21 08:16:00;;;;;;;5.70;3.60;;;;;;;21.16;48.15;99870.59;10166446;29;20040;-74
2023/07/21 08:21:19;;;;;;;5.15;4.03;;;;;;;21.37;48.00;99858.69;10153327;29;20111;-74
2023/07/21 08:26:22;;;;;;;5.63;4.00;;;;;;;21.07;48.55;99859.03;10154369;29;20103;-74
2023/07/21 08:31:25;;;;;;;4.65;4.25;;;;;;;21.07;47.60;99853.56;10156593;29;20036;-74
2023/07/21 08:36:29;;;;;;;5.10;4.70;;;;;;;21.96;45.76;99844.19;10153674;29;20052;-75
2023/07/21 08:41:54;;;;;;;5.93;4.35;;;;;;;21.34;46.78;99850.91;10151587;29;20118;-74
2023/07/21 08:46:57;;;;;;;5.32;4.60;;;;;;;20.85;48.07;99850.13;10158717;29;20049;-74
2023/07/21 08:52:02;;;;;;;5.45;4.60;;;;;;;21.19;47.90;99848.34;10158013;29;20480;-75
2023/07/21 08:57:05;;;;;;;5.20;4.75;;;;;;;22.20;46.13;99839.13;10157820;29;20048;-75
2023/07/21 09:02:08;;;;;;;4.95;4.45;;;;;;;21.25;46.98;99842.03;10149048;29;20137;-75
2023/07/21 09:07:13;;;;;;;6.13;3.45;;;;;;;21.62;45.42;99837.06;10151147;29;20044;-74
2023/07/21 09:12:16;;;;;;;2.90;2.63;;;;;;;21.67;42.88;99832.63;10166446;29;20633;-74
2023/07/21 09:17:19;;;;;;;3.67;3.38;;;;;;;23.22;41.90;99826.50;10157968;29;20448;-75
2023/07/21 09:22:24;;;;;;;3.38;3.08;;;;;;;22.98;41.92;99833.56;10166144;29;20048;-74
2023/07/21 09:27:27;;;;;;;6.78;3.60;;;;;;;22.95;41.63;99823.88;10160231;29;20040;-74
2023/07/21 09:32:39;;;;;;;4.65;3.72;;;;;;;22.62;42.91;99829.53;10159003;29;20417;-74
2023/07/21 09:37:43;;;;;;;;;;;;;;;22.40;42.09;99825.38;10163858;29;20071;-76
2023/07/21 09:42:47;;;;;;;4.80;2.70;;;;;;;23.24;41.10;99812.59;10153548;29;20005;-75
2023/07/21 09:47:50;;;;;;;3.00;2.80;;;;;;;22.15;42.82;99827.97;10159456;29;20095;-75
2023/07/21 09:52:55;;;;;;;3.28;2.97;;;;;;;21.96;41.98;99822.31;10166497;29;20348;-75
2023/07/21 09:57:58;;;;;;;3.13;2.83;;;;;;;22.22;41.11;99812.41;10161281;29;20051;-75
2023/07/21 10:03:01;;;;;;;3.08;2.42;;;;;;;23.98;39.15;99802.72;10157653;29;20055;-75
2023/07/21 10:08:09;;;;;;;2.70;2.35;;;;;;;23.26;38.56;99814.06;10156348;29;20087;-74
2023/07/21 10:13:12;;;;;;;4.57;3.33;;;;;;;21.41;44.33;99816.22;10139717;29;20598;-74
2023/07/21 10:18:15;;;;;;;8.35;2.20;;;;;;;21.97;43.24;99815.81;10163592;29;20048;-74
2023/07/21 10:23:25;;;;;;;2.00;1.80;;;;;;;21.62;43.70;99818.75;10155365;29;20122;-74
2023/07/21 10:28:42;;;;;;;2.78;2.20;;;;;;;20.46;46.77;99835.25;10156552;29;20060;-74
2023/07/21 10:34:02;;;;;;;4.60;2.35;;;;;;;20.55;47.66;99841.38;10154997;29;20596;-74
2023/07/21 10:39:10;;;;;;;3.90;3.35;;;;;;;20.73;49.64;99840.81;10152160;29;20131;-74
2023/07/21 10:44:13;;;;;;;8.40;3.50;;;;;;;20.88;50.68;99846.13;10156112;29;20047;-75
2023/07/21 10:49:18;;;;;;;7.13;4.40;;;;;;;20.88;52.26;99843.41;10154562;29;20044;-74
2023/07/21 10:54:22;;;;;;;5.30;3.58;;;;;;;20.46;54.43;99845.31;10154442;29;20055;-74
2023/07/21 10:59:25;;;;;;;4.22;3.67;;;;;;;19.66;58.16;99850.19;10152147;29;20047;-75
2023/07/21 11:04:28;;;;;;;6.75;4.90;;;;;;;18.87;67.88;99856.53;10155725;29;20055;-74
2023/07/21 11:09:33;;;;;;;5.43;4.68;;;;;;;17.68;70.76;99861.84;10152328;29;20047;-75
2023/07/21 11:14:38;;;;;;;6.20;5.60;;;;;;;16.69;68.71;99858.09;10154671;29;20076;-76
2023/07/21 11:19:41;;;;;;;7.40;6.70;;;;;;;16.46;68.67;99852.63;10156783;29;20136;-75
2023/07/21 11:25:09;;;;;;;8.43;6.13;;;;;;;17.21;78.14;99848.50;10149022;29;20513;-76
2023/07/21 11:30:16;;;;;;;7.80;5.80;;;;;;;17.21;71.99;99837.66;10148517;29;20036;-75
2023/07/21 11:35:19;;;;;;;6.40;5.18;;;;;;;17.74;78.13;99830.41;10151371;29;20488;-76
2023/07/21 11:40:25;;;;;;;6.35;5.72;;;;;;;18.49;80.15;99828.59;10157841;29;20044;-75
2023/07/21 11:45:34;;;;;;;5.20;4.35;;;;;;;18.56;74.56;99818.63;10152566;29;20079;-75
2023/07/21 11:50:36;;;;;;;6.38;4.38;;;;;;;19.17;73.30;99816.44;10150977;29;20065;-74
2023/07/21 11:55:41;;;;;;;3.42;3.15;;;;;;;19.80;71.69;99808.41;10151883;29;20044;-75
2023/07/21 12:00:44;;;;;;;6.43;5.82;;;;;;;20.63;64.43;99813.09;10146217;29;20039;-75
2023/07/21 12:05:47;;;;;;;4.72;4.32;;;;;;;21.30;63.01;99827.78;10155097;29;20078;-75
2023/07/21 12:10:51;;;;;;;4.60;3.78;;;;;;;22.19;55.93;99821.88;10151732;29;20045;-75
2023/07/21 12:15:54;;;;;;;5.05;4.10;;;;;;;23.28;48.09;99811.06;10160638;29;20515;-75
2023/07/21 12:20:57;;;;;;;6.13;5.50;;;;;;;24.28;44.54;99811.03;10152643;29;20479;-75
2023/07/21 12:26:02;;;;;;;4.93;4.45;;;;;;;24.98;42.10;99807.84;10142691;29;20044;-75
2023/07/21 12:31:05;;;;;;;6.82;5.28;;;;;;;22.66;42.66;99810.78;10155629;29;20036;-75
2023/07/21 12:36:09;;;;;;;5.50;5.03;;;;;;;22.05;46.04;99810.13;10146655;29;20044;-75
2023/07/21 12:41:13;;;;;;;6.22;5.72;;;;;;;22.00;47.15;99806.34;10149247;29;20051;-75
2023/07/21 12:46:16;;;;;;;6.95;4.88;;;;;;;22.42;48.68;99813.16;10147053;29;20048;-74
2023/07/21 12:51:19;;;;;;;5.70;5.20;;;;;;;20.52;49.30;99806.34;10160216;29;20464;-74
2023/07/21 12:56:24;;;;;;;5.68;4.80;;;;;;;20.38;51.42;99799.09;10156498;29;20060;-74
2023/07/21 13:01:27;;;;;;;12.40;7.43;;;;;;;17.51;82.67;99825.03;10154520;29;20072;-76
2023/07/21 13:06:30;;;;;;;10.00;9.05;;;;;;;16.32;86.92;99826.25;10153956;29;20044;-76
2023/07/21 13:11:39;;;;;;;12.48;9.77;;;;;;;15.95;91.57;99841.22;10153094;29;20049;-76
2023/07/21 13:16:42;;;;;;;16.98;12.20;;;;;;;15.84;90.68;99860.53;10151421;29;20044;-75
2023/07/21 13:21:45;;;;;;;12.93;9.85;;;;;;;14.99;97.87;99844.59;10149976;29;20072;-74
2023/07/21 13:26:50;;;;;;;16.05;10.82;;;;;;;15.24;97.48;99834.63;10150048;29;20056;-74
2023/07/21 13:31:52;;;;;;;21.90;14.73;;;;;;;15.17;100.00;99837.19;10155948;29;20500;-73
2023/07/21 13:36:56;;;;;;;17.25;12.93;;;;;;;15.42;100.00;99848.06;10141296;29;20045;-73
2023/07/21 13:42:00;;;;;;;14.25;12.10;;;;;;;15.78;100.00;99842.28;10159154;29;20048;-74
2023/07/21 13:47:03;;;;;;;13.32;9.50;;;;;;;15.16;99.18;99864.38;10149300;29;20127;-75
2023/07/21 13:52:07;;;;;;;20.92;9.90;;;;;;;15.28;99.48;99873.88;10152447;29;20049;-74
2023/07/21 13:57:12;;;;;;;18.90;11.70;;;;;;;15.23;98.48;99878.94;10161350;29;20063;-73
2023/07/21 14:02:15;;;;;;;13.05;11.55;;;;;;;15.29;99.01;99870.16;10146379;29;20402;-74
2023/07/21 14:07:18;;;;;;;19.13;12.73;;;;;;;15.61;97.04;99866.66;10158943;29;20060;-74
2023/07/21 14:12:22;;;;;;;19.55;12.77;;;;;;;15.77;97.69;99856.81;10153748;29;20490;-74
2023/07/21 14:17:25;;;;;;;12.82;9.88;;;;;;;16.43;98.93;99834.00;10150059;29;20448;-74
2023/07/21 14:22:28;;;;;;;12.57;11.10;;;;;;;16.80;98.53;99835.16;10149578;29;20504;-75
2023/07/21 14:27:32;;;;;;;10.02;9.05;;;;;;;16.98;96.77;99827.59;10158149;29;20162;-75
2023/07/21 14:32:35;;;;;;;12.48;10.55;;;;;;;17.01;97.29;99835.38;10150158;29;20047;-76
2023/07/21 14:37:38;;;;;;;9.18;8.27;;;;;;;17.16;97.50;99821.06;10153391;29;20674;-75
2023/07/21 14:42:42;;;;;;;7.55;6.80;;;;;;;17.63;100.00;99820.00;10155943;29;20089;-75
2023/07/21 14:47:46;;;;;;;5.95;5.00;;;;;;;18.12;100.00;99808.66;10144031;29;20048;-76
2023/07/21 14:52:49;;;;;;;6.15;4.88;;;;;;;18.85;100.00;99815.03;10158192;29;20052;-75
2023/07/21 14:57:53;;;;;;;5.95;4.85;;;;;;;20.47;98.85;99804.22;10152347;29;20048;-76
2023/07/21 15:02:56;;;;;;;4.88;4.47;;;;;;;21.45;100.00;99798.38;10149351;29;20067;-77
2023/07/21 15:07:59;;;;;;;4.47;4.00;;;;;;;21.32;86.28;99793.75;10155902;29;20492;-77
2023/07/21 15:13:03;;;;;;;4.80;3.50;;;;;;;21.31;88.36;99791.19;10161460;29;20052;-77
2023/07/21 15:18:06;;;;;;;3.78;2.40;;;;;;;21.01;83.94;99792.41;10157054;29;20044;-77
2023/07/21 15:23:12;;;;;;;4.32;3.10;;;;;;;21.44;80.84;99793.94;10158025;29;20078;-77
2023/07/21 15:28:16;;;;;;;2.53;1.83;;;;;;;21.44;83.62;99792.03;10147512;29;20041;-77
2023/07/21 15:33:19;;;;;;;2.78;1.85;;;;;;;21.83;82.69;99789.53;10160652;29;20053;-77
2023/07/21 15:38:22;;;;;;;2.97;2.67;;;;;;;20.53;80.26;99808.00;10146178;29;20040;-77
2023/07/21 15:43:26;;;;;;;2.83;2.60;;;;;;;20.01;88.45;99810.22;10150141;29;20052;-77
2023/07/21 15:48:30;;;;;;;3.60;3.30;;;;;;;19.49;89.25;99816.09;10143043;29;20531;-77
2023/07/21 15:53:33;;;;;;;6.38;3.78;;;;;;;18.87;89.02;99814.84;10149085;29;20387;-77
2023/07/21 15:58:37;;;;;;;4.68;3.67;;;;;;;18.58;90.75;99819.28;10158256;29;20045;-77
2023/07/21 16:03:40;;;;;;;4.88;3.00;;;;;;;17.84;84.60;99811.13;10150202;29;20596;-76
2023/07/21 16:08:43;;;;;;;4.03;3.50;;;;;;;17.44;86.09;99829.47;10148237;29;20428;-76
2023/07/21 16:13:49;;;;;;;3.92;3.10;;;;;;;16.72;83.68;99874.03;10150353;29;20043;-76
2023/07/21 16:18:52;;;;;;;5.07;4.57;;;;;;;13.60;88.69;99914.91;10153295;29;20052;-75
2023/07/21 16:23:55;;;;;;;8.20;5.22;;;;;;;12.28;99.11;99935.03;10149433;29;20504;-74
2023/07/21 16:28:59;;;;;;;4.07;3.67;;;;;;;12.42;100.00;99939.97;10159682;29;20089;-74
2023/07/21 16:34:02;;;;;;;8.10;5.68;;;;;;;12.33;100.00;99935.50;10151498;29;20131;-73
2023/07/21 16:39:05;;;;;;;17.25;7.72;;;;;;;12.35;100.00;99928.13;10160016;29;20047;-75
2023/07/21 16:44:10;;;;;;;9.40;5.82;;;;;;;12.12;100.00;99925.75;10158698;29;20051;-74
2023/07/21 16:49:12;;;;;;;17.13;5.82;;;;;;;12.51;100.00;99933.72;10149560;29;20056;-75
2023/07/21 16:54:15;;;;;;;7.18;5.07;;;;;;;12.59;100.00;99911.44;10156904;29;20055;-75
2023/07/21 16:59:22;;;;;;;12.90;7.32;;;;;;;13.07;100.00;99917.56;10156473;29;20063;-75
2023/07/21 17:04:30;;;;;;;9.27;7.82;;;;;;;13.01;100.00;99925.25;10152597;29;20048;-76
2023/07/21 17:09:33;;;;;;;9.50;8.27;;;;;;;13.50;97.93;99916.84;10156252;29;20127;-76
2023/07/21 17:14:37;;;;;;;12.10;8.90;;;;;;;13.51;95.98;99915.81;10161103;29;20567;-76
2023/07/21 17:19:40;;;;;;;9.48;8.48;;;;;;;13.53;96.44;99911.13;10166248;29;20067;-75
2023/07/21 17:24:44;;;;;;;8.05;7.25;;;;;;;13.67;95.12;99913.28;10158381;29;20100;-75
2023/07/21 17:29:49;;;;;;;10.55;8.45;;;;;;;13.92;94.96;99918.88;10150748;29;20048;-76
2023/07/21 17:34:53;;;;;;;13.60;9.60;;;;;;;13.97;94.67;99915.72;10160136;29;20044;-76
2023/07/21 17:39:56;;;;;;;10.65;9.55;;;;;;;13.88;95.88;99918.34;10161935;29;20516;-76
2023/07/21 17:45:02;;;;;;;10.93;9.80;;;;;;;14.03;95.02;99928.56;10149223;29;20052;-76
2023/07/21 17:50:07;;;;;;;9.93;8.88;;;;;;;13.93;93.25;99932.22;10148556;29;20041;-76
2023/07/21 17:55:10;;;;;;;15.63;8.98;;;;;;;13.69;94.97;99930.16;10151944;29;20526;-76
2023/07/21 18:00:15;;;;;;;13.73;9.82;;;;;;;14.04;95.04;99947.34;10146203;29;20047;-77
2023/07/21 18:05:18;;;;;;;11.38;10.20;;;;;;;14.13;94.67;99945.53;10151532;29;20079;-77
2023/07/21 18:10:21;;;;;;;12.70;10.15;;;;;;;13.99;94.86;99957.75;10155485;29;20059;-76
2023/07/21 18:15:27;;;;;;;10.20;9.05;;;;;;;14.27;94.44;99950.34;10148474;29;20055;-77
2023/07/21 18:20:32;;;;;;;11.18;9.80;;;;;;;14.24;93.66;99969.56;10147963;29;20055;-76
2023/07/21 18:25:37;;;;;;;11.70;10.20;;;;;;;13.76;94.92;99968.16;10147800;29;20074;-76
2023/07/21 18:30:42;;;;;;;14.15;10.60;;;;;;;14.25;93.47;99963.16;10152256;29;20614;-76
2023/07/21 18:35:46;;;;;;;15.75;11.60;;;;;;;14.41;93.64;99965.16;10139517;29;20055;-77
2023/07/21 18:40:50;;;;;;;13.20;11.55;;;;;;;14.38;92.33;99979.81;10156031;29;20053;-77
2023/07/21 18:45:56;;;;;;;14.20;11.30;;;;;;;14.34;93.38;99991.94;10148653;29;20043;-76
2023/07/21 18:50:59;;;;;;;14.77;12.43;;;;;;;14.05;93.28;100008.41;10157173;29;20036;-76
2023/07/21 18:56:02;;;;;;;16.85;12.27;;;;;;;14.22;93.18;100003.16;10154772;29;20040;-77
2023/07/21 19:01:06;;;;;;;16.75;12.95;;;;;;;14.32;92.41;99996.66;10154678;29;20091;-78
2023/07/21 19:06:09;;;;;;;14.98;12.80;;;;;;;14.27;92.60;99998.13;10153974;29;20066;-76
2023/07/21 19:11:16;;;;;;;18.25;13.43;;;;;;;14.45;93.96;100006.22;10148949;29;20064;-76
2023/07/21 19:16:22;;;;;;;21.85;13.02;;;;;;;14.50;92.91;100002.03;10151835;29;20051;-78
2023/07/21 19:21:25;;;;;;;15.25;13.18;;;;;;;14.37;92.69;100006.97;10156675;29;20048;-77
2023/07/21 19:26:29;;;;;;;16.73;12.98;;;;;;;14.42;92.04;100020.03;10141147;29;20044;-76
2023/07/21 19:31:33;;;;;;;14.05;12.70;;;;;;;14.36;91.67;100021.50;10152990;29;20044;-77
2023/07/21 19:36:37;;;;;;;15.05;13.50;;;;;;;14.28;92.37;100035.78;10155037;29;20052;-76
2023/07/21 19:41:40;;;;;;;15.48;12.60;;;;;;;14.28;92.47;100041.19;10153637;29;20047;-77
2023/07/21 19:46:45;;;;;;;16.05;12.77;;;;;;;14.22;91.65;100058.03;10153751;29;20044;-77
2023/07/21 19:51:50;;;;;;;19.42;13.82;;;;;;;14.16;92.59;100069.47;10147937;29;20165;-77
2023/07/21 19:56:53;;;;;;;16.98;15.25;;;;;;;14.16;92.00;100082.97;10146418;29;20054;-77
2023/07/21 20:01:57;;;;;;;19.08;14.90;;;;;;;13.87;92.40;100066.97;10157378;29;20044;-78
2023/07/21 20:07:00;;;;;;;21.45;15.95;;;;;;;13.73;92.96;100064.81;10168497;29;20072;-77
2023/07/21 20:12:03;;;;;;;19.95;15.27;;;;;;;13.75;92.03;100057.41;10170245;29;20045;-77
2023/07/21 20:17:08;;;;;;;15.38;13.73;;;;;;;13.82;91.89;100059.34;10155083;29;20047;-77
2023/07/21 20:22:11;;;;;;;19.83;15.57;;;;;;;13.84;91.89;100065.44;10155942;29;20045;-76
2023/07/21 20:27:13;;;;;;;19.67;15.75;;;;;;;13.80;91.46;100064.06;10150931;29;20052;-77
2023/07/21 20:32:18;;;;;;;18.90;15.30;;;;;;;13.82;92.41;100074.69;10147008;29;20412;-77
2023/07/21 20:37:21;;;;;;;24.35;15.35;;;;;;;13.65;91.76;100070.97;10149179;29;20167;-77
2023/07/21 20:42:23;;;;;;;21.85;16.75;;;;;;;13.82;92.24;100083.66;10158321;29;20469;-77
2023/07/21 20:47:28;;;;;;;25.75;17.45;;;;;;;13.82;92.32;100082.78;10147187;29;20466;-76
2023/07/21 20:52:31;;;;;;;24.50;15.23;;;;;;;13.74;91.96;100091.66;10150655;29;20040;-77
2023/07/21 20:57:34;;;;;;;19.00;14.57;;;;;;;13.60;91.67;100095.72;10151068;29;20492;-76
2023/07/21 21:02:38;;;;;;;21.75;15.52;;;;;;;13.49;91.62;100104.88;10150809;29;20044;-77
2023/07/21 21:07:42;;;;;;;20.13;17.05;;;;;;;13.36;91.77;100106.19;10155126;29;20051;-76
2023/07/21 21:12:45;;;;;;;20.38;15.95;;;;;;;13.04;92.62;100102.88;10152623;29;20044;-78
2023/07/21 21:17:49;;;;;;;25.13;18.73;;;;;;;13.18;92.08;100115.03;10159951;29;20092;-77
2023/07/21 21:22:52;;;;;;;24.90;18.30;;;;;;;12.84;92.40;100114.75;10159242;29;20116;-77
2023/07/21 21:27:55;;;;;;;32.13;19.15;;;;;;;12.68;93.05;100115.34;10158767;29;20531;-77
2023/07/21 21:33:00;;;;;;;27.98;19.98;;;;;;;12.95;92.96;100124.50;10157407;29;20048;-77
2023/07/21 21:38:03;;;;;;;29.48;20.13;;;;;;;12.85;92.21;100124.50;10159070;29;20052;-78
2023/07/21 21:43:05;;;;;;;25.23;17.65;;;;;;;12.60;93.23;100134.91;10160361;29;20048;-75
2023/07/21 21:48:10;;;;;;;27.42;19.15;;;;;;;12.54;93.61;100142.72;10149804;29;20055;-77
2023/07/21 21:53:13;;;;;;;29.90;18.63;;;;;;;12.67;92.35;100139.72;10162687;29;20633;-77
2023/07/21 21:58:16;;;;;;;22.38;17.25;;;;;;;12.58;92.07;100136.03;10159544;29;20686;-76
2023/07/21 22:03:20;;;;;;;24.02;15.35;;;;;;;12.46;91.86;100145.28;10165730;29;20503;-77
2023/07/21 22:08:23;;;;;;;22.58;16.40;;;;;;;12.53;90.97;100155.34;10178364;29;20058;-77
2023/07/21 22:13:26;;;;;;;24.10;16.70;;;;;;;12.53;90.77;100162.56;10153124;29;20044;-77
2023/07/21 22:18:31;;;;;;;21.10;16.17;;;;;;;12.53;90.48;100158.06;10159851;29;20119;-77
2023/07/21 22:23:34;;;;;;;20.85;16.00;;;;;;;12.56;90.16;100160.47;10162068;29;20508;-78
2023/07/21 22:28:37;;;;;;;23.60;15.23;;;;;;;12.47;90.10;100161.28;10163496;29;20040;-77
2023/07/21 22:33:41;;;;;;;20.23;15.85;;;;;;;12.48;90.29;100165.72;10154246;29;20393;-76
2023/07/21 22:38:44;;;;;;;30.38;20.27;;;;;;;12.51;90.05;100165.41;10151309;29;20075;-76
2023/07/21 22:43:47;;;;;;;26.75;20.80;;;;;;;12.51;90.31;100169.97;10157066;29;20381;-77
2023/07/21 22:48:51;;;;;;;28.83;20.90;;;;;;;12.46;90.17;100167.69;10154036;29;20084;-77
2023/07/21 22:53:54;;;;;;;34.55;22.42;;;;;;;12.46;90.48;100170.38;10162227;29;20071;-77
2023/07/21 22:58:57;;;;;;;33.97;21.35;;;;;;;12.44;90.55;100177.75;10157843;29;20577;-77
2023/07/21 23:04:01;;;;;;;33.20;21.00;;;;;;;12.42;90.47;100185.09;10157822;29;20515;-78
2023/07/21 23:09:04;;;;;;;30.73;20.73;;;;;;;12.34;90.29;100184.97;10157124;29;20040;-77
2023/07/21 23:14:07;;;;;;;28.15;20.70;;;;;;;12.30;90.33;100181.69;10164481;29;20143;-78
2023/07/21 23:19:12;;;;;;;32.42;22.38;;;;;;;12.29;90.28;100187.25;10145868;29;20045;-77
2023/07/21 23:24:15;;;;;;;33.15;23.38;;;;;;;12.25;90.19;100192.00;10155357;29;20048;-77